CheckWX is a tool to help pilots better visualize weather data.  It is not intended as a substitute for an official pre-flight weather briefing.

19:50:28 UTC

KBKS METAR
Brooks County Airport
Falfurrias, Texas, USA
Current

15 mins ago

KBKS 261935Z AUTO 14013G18KT 10SM SCT050 SCT065 35/20 A2995 RMK AO1 T03490197
Observed
May-26 @ 19:35 UTC
Wind
  • 140° at 13 KTS
  • Gusting to 18 KTS
Visibility
10 SM
Flight Rules
VFR
Cloud Levels
  • Scattered at 5,000' AGL
  • Scattered at 6,500' AGL
Temperature
35°C / 95°F
Dewpoint
20°C / 68°F
Heat Index
38°C / 100°F
Humidity
41%
Altimeter
29.95" Hg
Pressure
1014.22 hPa
Previous

35 mins ago

KBKS 261915Z AUTO 14012G18KT 10SM SCT048 SCT065 35/20 A2996 RMK AO1 T03480202
Observed
May-26 @ 19:15 UTC
Wind
  • 140° at 12 KTS
  • Gusting to 18 KTS
Visibility
10 SM
Flight Rules
VFR
Cloud Levels
  • Scattered at 4,800' AGL
  • Scattered at 6,500' AGL
Temperature
35°C / 95°F
Dewpoint
20°C / 68°F
Heat Index
38°C / 100°F
Humidity
41%
Altimeter
29.96" Hg
Pressure
1014.52 hPa
Previous

55 mins ago

KBKS 261855Z AUTO 13013G19KT 10SM SCT046 SCT055 35/20 A2996 RMK AO1 T03480203
Observed
May-26 @ 18:55 UTC
Wind
  • 130° at 13 KTS
  • Gusting to 19 KTS
Visibility
10 SM
Flight Rules
VFR
Cloud Levels
  • Scattered at 4,600' AGL
  • Scattered at 5,500' AGL
Temperature
35°C / 95°F
Dewpoint
20°C / 68°F
Heat Index
38°C / 100°F
Humidity
41%
Altimeter
29.96" Hg
Pressure
1014.52 hPa